sensor_id;sensor_type;location;lat;lon;timestamp;P1;durP1;ratioP1;P2;durP2;ratioP2
4754;SDS011;2391;47.212;7.542;2023-02-15T19:59:59;24.63;;;12.90;;
4754;SDS011;2391;47.212;7.542;2023-02-15T20:02:26;23.47;;;13.00;;
4754;SDS011;2391;47.212;7.542;2023-02-15T20:04:52;22.10;;;12.73;;
4754;SDS011;2391;47.212;7.542;2023-02-15T20:07:20;29.50;;;13.00;;
4754;SDS011;2391;47.212;7.542;2023-02-15T20:09:52;24.77;;;12.53;;
4754;SDS011;2391;47.212;7.542;2023-02-15T20:12:22;22.70;;;11.80;;
4754;SDS011;2391;47.212;7.542;2023-02-15T20:14:49;24.30;;;14.00;;
4754;SDS011;2391;47.212;7.542;2023-02-15T20:17:16;26.17;;;12.37;;
4754;SDS011;2391;47.212;7.542;2023-02-15T20:19:42;25.13;;;13.13;;
4754;SDS011;2391;47.212;7.542;2023-02-15T20:22:26;25.37;;;11.90;;
4754;SDS011;2391;47.212;7.542;2023-02-15T20:24:43;22.47;;;12.30;;
4754;SDS011;2391;47.212;7.542;2023-02-15T20:27:13;23.77;;;12.33;;
4754;SDS011;2391;47.212;7.542;2023-02-15T20:29:38;21.07;;;12.20;;
4754;SDS011;2391;47.212;7.542;2023-02-15T20:32:04;27.33;;;13.70;;
4754;SDS011;2391;47.212;7.542;2023-02-15T20:34:30;21.60;;;12.70;;
4754;SDS011;2391;47.212;7.542;2023-02-15T20:36:56;25.80;;;13.40;;
4754;SDS011;2391;47.212;7.542;2023-02-15T20:39:21;21.97;;;11.93;;
4754;SDS011;2391;47.212;7.542;2023-02-15T20:41:47;26.83;;;12.20;;
4754;SDS011;2391;47.212;7.542;2023-02-15T20:44:17;19.27;;;11.17;;
4754;SDS011;2391;47.212;7.542;2023-02-15T20:46:46;21.77;;;11.63;;
4754;SDS011;2391;47.212;7.542;2023-02-15T20:49:13;23.53;;;12.67;;
4754;SDS011;2391;47.212;7.542;2023-02-15T20:51:39;22.20;;;12.20;;
4754;SDS011;2391;47.212;7.542;2023-02-15T20:54:11;22.67;;;12.47;;
4754;SDS011;2391;47.212;7.542;2023-02-15T20:56:41;19.30;;;10.50;;
4754;SDS011;2391;47.212;7.542;2023-02-15T20:59:15;22.80;;;11.50;;
4754;SDS011;2391;47.212;7.542;2023-02-15T21:01:49;19.00;;;11.30;;
4754;SDS011;2391;47.212;7.542;2023-02-15T21:04:18;20.70;;;11.40;;
4754;SDS011;2391;47.212;7.542;2023-02-15T21:06:46;24.00;;;11.87;;
4754;SDS011;2391;47.212;7.542;2023-02-15T21:09:13;20.67;;;11.60;;
4754;SDS011;2391;47.212;7.542;2023-02-15T21:11:43;17.27;;;10.63;;
4754;SDS011;2391;47.212;7.542;2023-02-15T21:14:14;22.57;;;11.17;;
4754;SDS011;2391;47.212;7.542;2023-02-15T21:16:42;17.50;;;10.80;;
4754;SDS011;2391;47.212;7.542;2023-02-15T21:19:10;21.00;;;10.63;;
4754;SDS011;2391;47.212;7.542;2023-02-15T21:21:38;16.70;;;9.10;;
4754;SDS011;2391;47.212;7.542;2023-02-15T21:24:04;14.60;;;8.60;;
4754;SDS011;2391;47.212;7.542;2023-02-15T21:26:30;18.83;;;9.77;;
4754;SDS011;2391;47.212;7.542;2023-02-15T21:28:56;21.83;;;8.90;;
4754;SDS011;2391;47.212;7.542;2023-02-15T21:31:23;18.10;;;9.80;;
4754;SDS011;2391;47.212;7.542;2023-02-15T21:33:49;18.33;;;9.20;;
4754;SDS011;2391;47.212;7.542;2023-02-15T21:36:20;22.20;;;10.73;;
4754;SDS011;2391;47.212;7.542;2023-02-15T21:38:47;16.57;;;8.67;;
4754;SDS011;2391;47.212;7.542;2023-02-15T21:41:14;22.83;;;10.37;;
4754;SDS011;2391;47.212;7.542;2023-02-15T21:44:00;15.47;;;9.40;;
4754;SDS011;2391;47.212;7.542;2023-02-15T21:46:45;13.57;;;8.73;;
4754;SDS011;2391;47.212;7.542;2023-02-15T21:49:29;15.33;;;9.60;;
4754;SDS011;2391;47.212;7.542;2023-02-15T21:51:55;20.13;;;10.10;;
4754;SDS011;2391;47.212;7.542;2023-02-15T21:54:36;14.77;;;8.80;;
4754;SDS011;2391;47.212;7.542;2023-02-15T21:57:03;19.00;;;9.77;;
4754;SDS011;2391;47.212;7.542;2023-02-15T21:59:29;17.83;;;9.37;;
4754;SDS011;2391;47.212;7.542;2023-02-15T22:01:54;15.00;;;8.30;;
4754;SDS011;2391;47.212;7.542;2023-02-15T22:04:24;13.77;;;8.17;;
4754;SDS011;2391;47.212;7.542;2023-02-15T22:06:52;17.23;;;8.50;;
4754;SDS011;2391;47.212;7.542;2023-02-15T22:09:19;15.03;;;8.67;;
4754;SDS011;2391;47.212;7.542;2023-02-15T22:11:48;14.73;;;7.90;;
4754;SDS011;2391;47.212;7.542;2023-02-15T22:17:23;16.70;;;8.20;;
4754;SDS011;2391;47.212;7.542;2023-02-15T22:19:40;18.20;;;8.90;;
4754;SDS011;2391;47.212;7.542;2023-02-15T22:22:06;15.70;;;9.17;;
4754;SDS011;2391;47.212;7.542;2023-02-15T22:24:32;16.43;;;7.97;;
4754;SDS011;2391;47.212;7.542;2023-02-15T22:26:57;15.30;;;8.20;;
4754;SDS011;2391;47.212;7.542;2023-02-15T22:29:24;20.53;;;8.77;;
4754;SDS011;2391;47.212;7.542;2023-02-15T22:31:50;15.80;;;8.60;;
4754;SDS011;2391;47.212;7.542;2023-02-15T22:34:23;16.30;;;9.00;;
4754;SDS011;2391;47.212;7.542;2023-02-15T22:36:51;16.30;;;8.90;;
4754;SDS011;2391;47.212;7.542;2023-02-15T22:39:17;16.30;;;8.97;;
4754;SDS011;2391;47.212;7.542;2023-02-15T22:41:43;16.53;;;10.07;;
4754;SDS011;2391;47.212;7.542;2023-02-15T22:44:10;15.57;;;9.03;;
4754;SDS011;2391;47.212;7.542;2023-02-15T22:46:38;18.00;;;9.80;;
4754;SDS011;2391;47.212;7.542;2023-02-15T22:49:04;15.03;;;8.80;;
4754;SDS011;2391;47.212;7.542;2023-02-15T22:51:30;17.20;;;9.70;;
4754;SDS011;2391;47.212;7.542;2023-02-15T22:53:56;14.90;;;8.47;;
4754;SDS011;2391;47.212;7.542;2023-02-15T22:56:25;19.30;;;10.30;;
4754;SDS011;2391;47.212;7.542;2023-02-15T22:58:55;18.27;;;10.00;;
4754;SDS011;2391;47.212;7.542;2023-02-15T23:01:25;16.27;;;8.40;;
4754;SDS011;2391;47.212;7.542;2023-02-15T23:03:53;15.57;;;9.20;;
4754;SDS011;2391;47.212;7.542;2023-02-15T23:06:18;17.97;;;9.30;;
4754;SDS011;2391;47.212;7.542;2023-02-15T23:08:44;15.57;;;8.50;;
4754;SDS011;2391;47.212;7.542;2023-02-15T23:11:10;15.03;;;8.83;;
4754;SDS011;2391;47.212;7.542;2023-02-15T23:13:36;16.77;;;9.00;;
4754;SDS011;2391;47.212;7.542;2023-02-15T23:16:03;16.83;;;9.67;;
4754;SDS011;2391;47.212;7.542;2023-02-15T23:18:31;16.13;;;9.20;;
4754;SDS011;2391;47.212;7.542;2023-02-15T23:21:11;16.23;;;8.90;;
4754;SDS011;2391;47.212;7.542;2023-02-15T23:23:42;14.10;;;8.33;;
4754;SDS011;2391;47.212;7.542;2023-02-15T23:26:14;14.80;;;8.57;;
4754;SDS011;2391;47.212;7.542;2023-02-15T23:28:38;16.73;;;8.47;;
4754;SDS011;2391;47.212;7.542;2023-02-15T23:31:14;15.13;;;8.37;;
4754;SDS011;2391;47.212;7.542;2023-02-15T23:33:51;15.00;;;8.30;;
4754;SDS011;2391;47.212;7.542;2023-02-15T23:36:28;17.10;;;8.87;;
4754;SDS011;2391;47.212;7.542;2023-02-15T23:38:59;15.17;;;8.30;;
4754;SDS011;2391;47.212;7.542;2023-02-15T23:41:32;17.93;;;8.83;;
4754;SDS011;2391;47.212;7.542;2023-02-15T23:43:58;16.33;;;7.40;;
4754;SDS011;2391;47.212;7.542;2023-02-15T23:46:38;14.80;;;8.30;;
4754;SDS011;2391;47.212;7.542;2023-02-15T23:49:15;15.77;;;8.80;;
4754;SDS011;2391;47.212;7.542;2023-02-15T23:51:40;14.97;;;8.53;;
4754;SDS011;2391;47.212;7.542;2023-02-15T23:54:12;12.23;;;7.93;;
4754;SDS011;2391;47.212;7.542;2023-02-15T23:56:38;20.63;;;8.23;;
4754;SDS011;2391;47.212;7.542;2023-02-15T23:59:05;13.60;;;8.73;;
